createdAt,value
2019-05-05T00:01:55.536Z,31.14
2019-05-05T00:05:05.297Z,31.35
2019-05-05T00:07:45.360Z,31.16
2019-05-05T00:10:30.762Z,31.51
2019-05-05T00:13:17.701Z,31.31
2019-05-05T00:16:11.858Z,31.74
2019-05-05T00:18:50.337Z,31.99
2019-05-05T00:21:28.102Z,31.95
2019-05-05T00:24:05.329Z,31.79
2019-05-05T00:26:46.054Z,32.03
2019-05-05T00:29:25.218Z,31.65
2019-05-05T00:32:02.483Z,31.98
2019-05-05T00:34:40.458Z,31.69
2019-05-05T00:37:17.839Z,31.53
2019-05-05T00:39:55.581Z,31.77
2019-05-05T00:42:35.198Z,31.58
2019-05-05T00:45:14.651Z,31.80
2019-05-05T00:48:05.271Z,32.04
2019-05-05T00:50:44.980Z,32.02
2019-05-05T00:53:22.408Z,32.07
2019-05-05T00:55:59.926Z,32.31
2019-05-05T00:58:39.164Z,32.18
2019-05-05T01:01:45.314Z,32.46
2019-05-05T01:04:29.099Z,32.09
2019-05-05T01:07:07.273Z,32.02
2019-05-05T01:09:45.535Z,32.11
2019-05-05T01:12:24.455Z,32.12
2019-05-05T01:15:01.858Z,32.04
2019-05-05T01:17:39.665Z,32.22
2019-05-05T01:20:17.483Z,32.18
2019-05-05T01:22:55.499Z,32.33
2019-05-05T01:25:34.695Z,32.47
2019-05-05T01:28:14.235Z,32.62
2019-05-05T01:30:54.994Z,32.81
2019-05-05T01:33:51.855Z,32.43
2019-05-05T01:36:29.992Z,32.42
2019-05-05T01:39:25.120Z,32.55
2019-05-05T01:42:04.873Z,32.36
2019-05-05T01:44:44.822Z,32.43
2019-05-05T01:47:25.272Z,32.39
2019-05-05T01:50:16.736Z,32.51
2019-05-05T01:52:40.827Z,32.92
2019-05-05T01:55:20.330Z,33.11
2019-05-05T01:57:58.179Z,33.53
2019-05-05T02:00:35.706Z,33.59
2019-05-05T02:03:14.755Z,33.51
2019-05-05T02:05:54.992Z,33.42
2019-05-05T02:08:34.941Z,33.20
2019-05-05T02:11:15.604Z,33.34
2019-05-05T02:13:54.548Z,33.31
2019-05-05T02:16:34.534Z,33.40
2019-05-05T02:19:11.169Z,33.63
2019-05-05T02:21:48.656Z,33.73
2019-05-05T02:24:25.807Z,33.68
2019-05-05T02:27:05.868Z,33.98
2019-05-05T02:30:16.235Z,33.95
2019-05-05T02:33:02.421Z,34.54
2019-05-05T02:35:39.739Z,34.67
2019-05-05T02:38:17.493Z,35.26
2019-05-05T02:40:55.436Z,35.18
2019-05-05T02:43:34.558Z,34.76
2019-05-05T02:46:20.431Z,35.01
2019-05-05T02:48:59.493Z,35.55
2019-05-05T02:51:37.078Z,35.29
2019-05-05T02:54:14.862Z,35.37
2019-05-05T02:56:54.217Z,35.44
2019-05-05T02:59:38.681Z,35.49
2019-05-05T03:02:19.302Z,35.30
2019-05-05T03:04:57.189Z,36.08
2019-05-05T03:07:34.504Z,36.29
2019-05-05T03:10:14.082Z,36.45
2019-05-05T03:12:51.599Z,36.72
2019-05-05T03:15:49.757Z,36.92
2019-05-05T03:18:27.993Z,37.10
2019-05-05T03:21:07.437Z,36.40
2019-05-05T03:23:46.336Z,36.81
2019-05-05T03:26:24.347Z,36.47
2019-05-05T03:29:04.795Z,36.22
2019-05-05T03:31:45.890Z,35.89
2019-05-05T03:34:24.090Z,36.34
2019-05-05T03:37:01.473Z,36.51
2019-05-05T03:39:40.352Z,36.82
2019-05-05T03:42:33.804Z,37.29
2019-05-05T03:45:24.739Z,37.10
2019-05-05T03:48:04.682Z,37.23
2019-05-05T03:50:44.509Z,37.50
2019-05-05T03:53:24.433Z,37.59
2019-05-05T03:56:03.805Z,37.68
2019-05-05T03:58:40.251Z,37.88
2019-05-05T04:01:44.105Z,38.62
2019-05-05T04:04:27.713Z,38.03
2019-05-05T04:07:05.013Z,37.33
2019-05-05T04:09:43.793Z,37.65
2019-05-05T04:12:21.125Z,37.88
2019-05-05T04:14:59.657Z,37.89
2019-05-05T04:17:49.779Z,37.84
2019-05-05T04:20:30.136Z,37.22
2019-05-05T04:23:07.283Z,36.53
2019-05-05T04:25:45.831Z,37.35
2019-05-05T04:28:24.094Z,37.22
2019-05-05T04:31:01.567Z,37.34
2019-05-05T04:33:39.184Z,37.91
2019-05-05T04:36:17.487Z,37.76
2019-05-05T04:38:55.048Z,38.25
2019-05-05T04:41:33.799Z,38.85
2019-05-05T04:44:11.488Z,38.00
2019-05-05T04:46:50.863Z,37.79
2019-05-05T04:49:44.530Z,37.92
2019-05-05T04:52:25.246Z,38.00
2019-05-05T04:55:03.857Z,37.50
2019-05-05T04:57:43.705Z,38.03
2019-05-05T05:00:24.021Z,37.87
2019-05-05T05:03:20.433Z,37.85
2019-05-05T05:06:10.478Z,38.20
2019-05-05T05:08:48.343Z,38.75
2019-05-05T05:11:25.604Z,38.21
2019-05-05T05:14:03.873Z,38.07
2019-05-05T05:16:41.010Z,37.81
2019-05-05T05:19:18.795Z,37.55
2019-05-05T05:22:01.644Z,37.90
2019-05-05T05:24:35.600Z,37.98
2019-05-05T05:27:13.883Z,37.96
2019-05-05T05:29:54.423Z,37.48
2019-05-05T05:32:33.970Z,37.21
2019-05-05T05:35:11.407Z,37.44
2019-05-05T05:37:48.584Z,37.23
2019-05-05T05:40:44.741Z,36.79
2019-05-05T05:43:36.787Z,37.20
2019-05-05T05:46:32.970Z,36.66
2019-05-05T05:49:18.888Z,36.69
2019-05-05T05:52:12.372Z,36.49
2019-05-05T05:54:40.601Z,36.53
2019-05-05T05:57:18.404Z,36.58
2019-05-05T05:59:55.804Z,36.47
2019-05-05T06:02:34.086Z,36.21
2019-05-05T06:05:11.601Z,35.52
2019-05-05T06:07:49.043Z,35.88
2019-05-05T06:10:27.621Z,36.29
2019-05-05T06:13:05.703Z,36.92
2019-05-05T06:15:44.403Z,36.56
2019-05-05T06:18:24.325Z,36.59
2019-05-05T06:21:01.992Z,36.60
2019-05-05T06:23:40.118Z,36.43
2019-05-05T06:26:18.538Z,36.60
2019-05-05T06:28:55.879Z,36.48
2019-05-05T06:31:34.156Z,36.38
2019-05-05T06:34:13.962Z,35.74
2019-05-05T06:36:51.393Z,35.78
2019-05-05T06:39:28.651Z,35.69
2019-05-05T06:42:23.679Z,35.97
2019-05-05T06:45:05.987Z,36.19
2019-05-05T06:47:45.529Z,35.94
2019-05-05T06:50:24.288Z,35.89
2019-05-05T06:53:04.110Z,35.82
2019-05-05T06:55:44.288Z,35.97
2019-05-05T06:58:24.160Z,35.77
2019-05-05T07:01:03.634Z,35.91
2019-05-05T07:03:40.943Z,35.55
2019-05-05T07:06:18.558Z,36.39
2019-05-05T07:08:55.818Z,36.58
2019-05-05T07:11:34.328Z,36.05
2019-05-05T07:14:14.129Z,35.88
2019-05-05T07:16:54.339Z,35.97
2019-05-05T07:19:31.082Z,36.02
2019-05-05T07:22:08.555Z,36.01
2019-05-05T07:24:45.700Z,35.47
2019-05-05T07:27:24.523Z,35.88
2019-05-05T07:30:04.868Z,35.84
2019-05-05T07:32:44.192Z,36.32
2019-05-05T07:35:56.882Z,36.50
2019-05-05T07:38:28.457Z,35.88
2019-05-05T07:41:05.868Z,35.49
2019-05-05T07:43:43.812Z,35.29
2019-05-05T07:46:21.347Z,35.58
2019-05-05T07:48:59.923Z,35.79
2019-05-05T07:51:38.039Z,35.34
2019-05-05T07:54:16.010Z,35.34
2019-05-05T07:56:53.947Z,35.46
2019-05-05T07:59:33.885Z,35.67
2019-05-05T08:02:11.850Z,35.97
2019-05-05T08:04:49.409Z,35.56
2019-05-05T08:07:26.934Z,36.04
2019-05-05T08:10:05.195Z,35.93
2019-05-05T08:12:43.638Z,35.32
2019-05-05T08:15:23.767Z,35.73
2019-05-05T08:18:24.193Z,35.91
2019-05-05T08:21:04.524Z,35.80
2019-05-05T08:23:47.640Z,35.54
2019-05-05T08:26:46.510Z,35.93
2019-05-05T08:32:39.207Z,35.32
2019-05-05T08:35:17.151Z,35.69
2019-05-05T08:37:54.658Z,35.50
2019-05-05T08:40:34.548Z,35.47
2019-05-05T08:43:13.852Z,35.67
2019-05-05T08:45:51.816Z,35.97
2019-05-05T08:48:29.291Z,36.19
2019-05-05T08:51:07.688Z,35.93
2019-05-05T08:53:48.179Z,35.87
2019-05-05T08:56:24.579Z,35.80
2019-05-05T08:59:03.664Z,35.79
2019-05-05T09:01:41.436Z,35.77
2019-05-05T09:04:19.838Z,35.79
2019-05-05T09:06:58.286Z,35.82
2019-05-05T09:09:35.453Z,35.19
2019-05-05T09:12:14.050Z,35.45
2019-05-05T09:14:53.819Z,35.26
2019-05-05T09:17:30.907Z,34.95
2019-05-05T09:20:08.525Z,34.89
2019-05-05T09:22:46.937Z,35.28
2019-05-05T09:25:50.012Z,35.21
2019-05-05T09:28:45.754Z,35.25
2019-05-05T09:31:24.081Z,35.32
2019-05-05T09:34:04.167Z,35.13
2019-05-05T09:36:43.991Z,35.32
2019-05-05T09:39:23.864Z,35.20
2019-05-05T09:42:00.886Z,35.23
2019-05-05T09:44:38.820Z,35.16
2019-05-05T09:47:16.047Z,35.40
2019-05-05T09:49:54.976Z,34.95
2019-05-05T09:52:33.795Z,35.45
2019-05-05T09:55:13.834Z,35.00
2019-05-05T09:57:50.965Z,35.20
2019-05-05T10:00:28.688Z,34.91
2019-05-05T10:03:06.114Z,35.23
2019-05-05T10:05:43.935Z,35.36
2019-05-05T10:08:23.534Z,35.42
2019-05-05T10:11:00.407Z,34.74
2019-05-05T10:13:37.776Z,35.12
2019-05-05T10:16:16.765Z,35.35
2019-05-05T10:18:54.359Z,35.20
2019-05-05T10:21:33.783Z,34.88
2019-05-05T10:24:27.640Z,35.00
2019-05-05T10:26:58.710Z,34.77
2019-05-05T10:29:36.440Z,34.47
2019-05-05T10:32:14.841Z,34.50
2019-05-05T10:35:04.574Z,34.81
2019-05-05T10:37:43.969Z,34.65
2019-05-05T10:40:25.376Z,34.68
2019-05-05T10:43:04.384Z,34.73
2019-05-05T10:45:44.049Z,34.73
2019-05-05T10:48:23.581Z,34.52
2019-05-05T10:51:01.070Z,34.20
2019-05-05T10:53:38.523Z,34.22
2019-05-05T10:56:16.776Z,34.47
2019-05-05T10:58:54.628Z,34.21
2019-05-05T11:01:34.219Z,34.00
2019-05-05T11:04:13.518Z,34.19
2019-05-05T11:06:50.866Z,33.96
2019-05-05T11:09:29.100Z,33.91
2019-05-05T11:12:07.082Z,34.09
2019-05-05T11:14:45.999Z,34.02
2019-05-05T11:17:24.818Z,33.86
2019-05-05T11:20:03.974Z,33.94
2019-05-05T11:22:43.818Z,33.97
2019-05-05T11:25:21.089Z,33.93
2019-05-05T11:27:59.641Z,33.93
2019-05-05T11:30:43.858Z,33.66
2019-05-05T11:33:36.143Z,33.76
2019-05-05T11:36:20.637Z,33.76
2019-05-05T11:38:58.088Z,34.01
2019-05-05T11:41:36.383Z,33.85
2019-05-05T11:44:15.270Z,33.70
2019-05-05T11:46:54.698Z,33.91
2019-05-05T11:49:33.690Z,33.88
2019-05-05T11:52:12.146Z,33.62
2019-05-05T11:54:49.247Z,33.45
2019-05-05T11:57:26.553Z,33.66
2019-05-05T12:00:03.946Z,33.48
2019-05-05T12:02:44.648Z,33.26
2019-05-05T12:05:21.892Z,33.10
2019-05-05T12:07:59.484Z,33.22
2019-05-05T12:11:10.374Z,33.31
2019-05-05T12:13:48.483Z,33.42
2019-05-05T12:16:34.681Z,33.23
2019-05-05T12:19:13.890Z,33.28
2019-05-05T12:21:51.421Z,33.42
2019-05-05T12:24:35.151Z,33.40
2019-05-05T12:27:22.082Z,33.32
2019-05-05T12:30:06.832Z,33.28
2019-05-05T12:32:47.755Z,33.54
2019-05-05T12:35:27.796Z,33.29
2019-05-05T12:38:05.382Z,33.18
2019-05-05T12:40:45.818Z,33.34
2019-05-05T12:43:24.648Z,33.18
2019-05-05T12:46:24.220Z,33.08
2019-05-05T12:49:06.334Z,33.25
2019-05-05T12:51:44.460Z,33.23
2019-05-05T12:54:24.406Z,33.14
2019-05-05T12:57:04.385Z,33.04
2019-05-05T12:59:44.448Z,33.26
2019-05-05T13:02:23.515Z,33.28
2019-05-05T13:05:01.075Z,33.04
2019-05-05T13:07:39.338Z,33.11
2019-05-05T13:10:18.081Z,33.32
2019-05-05T13:12:56.065Z,33.38
2019-05-05T13:15:34.629Z,33.16
2019-05-05T13:18:14.030Z,33.36
2019-05-05T13:21:09.786Z,33.38
2019-05-05T13:23:56.514Z,33.27
2019-05-05T13:26:39.307Z,33.06
2019-05-05T13:29:17.148Z,32.93
2019-05-05T13:31:54.596Z,33.13
2019-05-05T13:34:31.563Z,33.25
2019-05-05T13:37:09.053Z,33.07
2019-05-05T13:39:47.203Z,32.92
2019-05-05T13:42:24.821Z,33.21
2019-05-05T13:45:14.408Z,33.27
2019-05-05T13:47:51.705Z,33.25
2019-05-05T13:50:44.528Z,33.36
2019-05-05T13:53:23.718Z,33.44
2019-05-05T13:56:11.044Z,33.57
2019-05-05T13:58:40.625Z,33.38
2019-05-05T14:01:19.103Z,33.52
2019-05-05T14:03:57.803Z,33.48
2019-05-05T14:06:35.760Z,33.14
2019-05-05T14:09:14.405Z,33.13
2019-05-05T14:11:53.533Z,33.28
2019-05-05T14:14:30.861Z,33.52
2019-05-05T14:17:08.990Z,33.48
2019-05-05T14:20:00.407Z,33.28
2019-05-05T14:22:26.350Z,33.34
2019-05-05T14:25:10.598Z,33.50
2019-05-05T14:27:48.177Z,33.04
2019-05-05T14:30:44.346Z,33.00
2019-05-05T14:33:25.383Z,33.14
2019-05-05T14:36:16.610Z,33.10
2019-05-05T14:38:57.622Z,33.03
2019-05-05T14:41:36.030Z,33.30
2019-05-05T14:44:13.831Z,33.38
2019-05-05T14:46:51.188Z,33.31
2019-05-05T14:49:28.659Z,33.19
2019-05-05T14:52:06.066Z,33.26
2019-05-05T14:54:44.356Z,33.17
2019-05-05T14:57:24.942Z,32.95
2019-05-05T15:00:04.545Z,33.11
2019-05-05T15:02:43.857Z,33.13
2019-05-05T15:05:45.629Z,33.01
2019-05-05T15:08:54.475Z,33.07
2019-05-05T15:11:53.836Z,33.14
2019-05-05T15:14:31.430Z,33.10
2019-05-05T15:17:09.588Z,32.96
2019-05-05T15:19:46.677Z,32.92
2019-05-05T15:22:24.502Z,32.90
2019-05-05T15:25:04.064Z,33.04
2019-05-05T15:27:45.120Z,32.75
2019-05-05T15:30:26.899Z,32.80
2019-05-05T15:33:04.624Z,32.92
2019-05-05T15:35:44.502Z,33.09
2019-05-05T15:38:21.258Z,32.96
2019-05-05T15:40:58.981Z,32.81
2019-05-05T15:43:36.493Z,32.91
2019-05-05T15:46:15.251Z,33.03
2019-05-05T15:48:54.436Z,32.82
2019-05-05T15:51:31.663Z,33.00
2019-05-05T15:54:09.101Z,32.99
2019-05-05T15:56:46.165Z,32.91
2019-05-05T15:59:24.837Z,32.91
2019-05-05T16:02:04.184Z,32.77
2019-05-05T16:04:41.209Z,33.10
2019-05-05T16:07:19.034Z,33.01
2019-05-05T16:09:57.133Z,32.93
2019-05-05T16:12:39.349Z,33.07
2019-05-05T16:15:27.696Z,33.00
2019-05-05T16:18:29.276Z,32.85
2019-05-05T16:21:26.330Z,33.03
2019-05-05T16:24:06.295Z,32.94
2019-05-05T16:26:43.941Z,32.85
2019-05-05T16:29:21.422Z,32.71
2019-05-05T16:32:00.883Z,32.92
2019-05-05T16:34:38.202Z,32.93
2019-05-05T16:37:15.532Z,32.72
2019-05-05T16:39:54.336Z,32.78
2019-05-05T16:42:34.456Z,32.97
2019-05-05T16:45:13.658Z,32.91
2019-05-05T16:47:51.186Z,32.90
2019-05-05T16:50:28.732Z,32.91
2019-05-05T16:53:06.977Z,32.92
2019-05-05T16:55:53.740Z,32.96
2019-05-05T16:58:33.281Z,32.71
2019-05-05T17:01:14.491Z,32.89
2019-05-05T17:03:54.341Z,33.01
2019-05-05T17:06:31.732Z,33.00
2019-05-05T17:09:09.432Z,32.96
2019-05-05T17:12:05.751Z,33.00
2019-05-05T17:15:04.474Z,32.93
2019-05-05T17:17:57.228Z,32.94
2019-05-05T17:20:39.047Z,32.70
2019-05-05T17:23:18.039Z,32.66
2019-05-05T17:25:56.515Z,32.79
2019-05-05T17:28:33.646Z,32.76
2019-05-05T17:31:12.564Z,32.63
2019-05-05T17:33:50.127Z,32.74
2019-05-05T17:36:29.640Z,32.82
2019-05-05T17:39:08.847Z,32.82
2019-05-05T17:42:14.249Z,32.60
2019-05-05T17:45:19.617Z,32.50
2019-05-05T17:48:01.312Z,33.01
2019-05-05T17:51:15.759Z,32.63
2019-05-05T17:54:10.533Z,32.63
2019-05-05T17:56:47.825Z,32.64
2019-05-05T17:59:26.242Z,32.93
2019-05-05T18:02:04.715Z,32.73
2019-05-05T18:04:45.816Z,32.41
2019-05-05T18:07:31.312Z,32.54
2019-05-05T18:10:24.076Z,32.85
2019-05-05T18:13:17.335Z,32.73
2019-05-05T18:15:57.093Z,32.50
2019-05-05T18:18:34.316Z,32.72
2019-05-05T18:21:14.249Z,32.89
2019-05-05T18:23:51.427Z,32.76
2019-05-05T18:26:28.934Z,32.45
2019-05-05T18:29:06.196Z,32.70
2019-05-05T18:31:43.818Z,32.77
2019-05-05T18:34:21.200Z,32.77
2019-05-05T18:36:58.823Z,32.57
2019-05-05T18:39:36.835Z,32.57
2019-05-05T18:42:24.402Z,32.59
2019-05-05T18:45:07.290Z,32.59
2019-05-05T18:47:45.405Z,32.43
2019-05-05T18:50:24.417Z,32.77
2019-05-05T18:53:04.677Z,32.75
2019-05-05T18:55:44.303Z,32.50
2019-05-05T18:58:29.687Z,32.42
2019-05-05T19:01:13.594Z,32.74
2019-05-05T19:04:09.515Z,32.98
2019-05-05T19:07:07.002Z,33.02
2019-05-05T19:09:53.958Z,32.77
2019-05-05T19:12:26.234Z,32.71
2019-05-05T19:15:04.438Z,32.98
2019-05-05T19:17:43.555Z,32.70
2019-05-05T19:20:29.119Z,33.02
2019-05-05T19:23:06.608Z,32.99
2019-05-05T19:25:44.855Z,32.76
2019-05-05T19:28:23.544Z,32.95
2019-05-05T19:31:01.144Z,32.83
2019-05-05T19:33:39.255Z,32.99
2019-05-05T19:36:17.740Z,33.05
2019-05-05T19:38:55.299Z,32.87
2019-05-05T19:41:34.824Z,33.11
2019-05-05T19:44:14.552Z,33.38
2019-05-05T19:47:00.478Z,33.27
2019-05-05T19:49:39.224Z,32.91
2019-05-05T19:52:16.773Z,32.76
2019-05-05T19:54:55.349Z,32.92
2019-05-05T19:57:33.656Z,33.02
2019-05-05T20:00:12.064Z,32.97
2019-05-05T20:03:01.349Z,33.06
2019-05-05T20:05:29.500Z,33.18
2019-05-05T20:08:07.482Z,32.95
2019-05-05T20:10:45.086Z,32.90
2019-05-05T20:13:23.355Z,32.74
2019-05-05T20:16:24.283Z,32.94
2019-05-05T20:19:04.211Z,32.90
2019-05-05T20:21:41.353Z,32.72
2019-05-05T20:24:18.849Z,32.90
2019-05-05T20:26:55.911Z,32.76
2019-05-05T20:29:37.061Z,32.65
2019-05-05T20:32:13.895Z,32.56
2019-05-05T20:35:04.375Z,32.59
2019-05-05T20:37:49.363Z,32.75
2019-05-05T20:40:31.092Z,32.72
2019-05-05T20:43:08.458Z,32.54
2019-05-05T20:45:48.057Z,32.55
2019-05-05T20:48:25.624Z,32.55
2019-05-05T20:51:03.534Z,32.64
2019-05-05T20:53:41.038Z,32.46
2019-05-05T20:56:19.128Z,32.52
2019-05-05T20:58:56.119Z,32.71
2019-05-05T21:01:34.324Z,32.76
2019-05-05T21:04:14.066Z,32.67
2019-05-05T21:06:51.931Z,32.33
2019-05-05T21:09:29.676Z,32.49
2019-05-05T21:12:08.190Z,32.44
2019-05-05T21:14:45.391Z,32.30
2019-05-05T21:17:24.583Z,32.36
2019-05-05T21:20:04.185Z,32.38
2019-05-05T21:22:51.491Z,32.40
2019-05-05T21:25:38.234Z,32.37
2019-05-05T21:28:15.879Z,32.21
2019-05-05T21:30:54.097Z,32.23
2019-05-05T21:33:31.894Z,32.48
2019-05-05T21:36:09.235Z,32.71
2019-05-05T21:38:47.336Z,32.38
2019-05-05T21:41:24.665Z,32.11
2019-05-05T21:44:03.768Z,32.21
2019-05-05T21:46:40.794Z,32.18
2019-05-05T21:49:20.509Z,32.27
2019-05-05T21:52:16.313Z,32.38
2019-05-05T21:55:11.270Z,32.19
2019-05-05T21:58:13.522Z,32.48
2019-05-05T22:01:08.567Z,32.42
2019-05-05T22:03:46.103Z,32.18
2019-05-05T22:06:24.249Z,32.40
2019-05-05T22:09:01.411Z,32.49
2019-05-05T22:11:40.101Z,32.36
2019-05-05T22:14:17.494Z,32.24
2019-05-05T22:16:56.462Z,32.11
2019-05-05T22:19:37.261Z,32.19
2019-05-05T22:22:16.150Z,32.30
2019-05-05T22:24:54.061Z,32.26
2019-05-05T22:27:34.549Z,32.12
2019-05-05T22:30:14.032Z,32.17
2019-05-05T22:32:51.312Z,32.51
2019-05-05T22:35:28.714Z,32.50
2019-05-05T22:38:06.611Z,32.34
2019-05-05T22:40:44.182Z,32.12
2019-05-05T22:43:23.911Z,32.33
2019-05-05T22:46:03.515Z,32.42
2019-05-05T22:48:43.874Z,32.23
2019-05-05T22:51:22.040Z,32.18
2019-05-05T22:53:59.752Z,32.38
2019-05-05T22:56:37.360Z,32.40
2019-05-05T22:59:16.298Z,32.28
2019-05-05T23:01:54.151Z,32.37
2019-05-05T23:04:40.376Z,32.38
2019-05-05T23:07:45.476Z,32.29
2019-05-05T23:10:23.579Z,32.10
2019-05-05T23:13:00.992Z,32.26
2019-05-05T23:15:40.009Z,32.33
2019-05-05T23:18:25.443Z,32.08
2019-05-05T23:21:15.906Z,32.29
2019-05-05T23:24:14.321Z,32.47
2019-05-05T23:26:54.598Z,32.34
2019-05-05T23:29:33.988Z,32.07
2019-05-05T23:32:11.379Z,32.20
2019-05-05T23:34:48.910Z,32.12
2019-05-05T23:37:26.576Z,31.84
2019-05-05T23:40:04.071Z,32.02
2019-05-05T23:42:42.067Z,32.32
2019-05-05T23:45:19.537Z,32.49
2019-05-05T23:47:57.006Z,32.22
2019-05-05T23:50:34.695Z,32.22
2019-05-05T23:53:13.844Z,32.59
2019-05-05T23:55:54.408Z,32.61
2019-05-05T23:58:30.906Z,32.35
